Time;durP1;ratioP1;P1;durP2;ratioP2;P2;SDS_P1;SDS_P2;PMS_P1;PMS_P2;Temp;Humidity;BMP_temperature;BMP_pressure;BME280_temperature;BME280_humidity;BME280_pressure;Samples;Min_cycle;Max_cycle;Signal;HPM_P1;HPM_P2
2023/11/15 00:01:49;;;;;;;16.10;3.28;;;;;;;;;;4970793;28;20037;-77
2023/11/15 00:04:17;;;;;;;18.13;3.28;;;;;;;;;;4968463;28;20038;-78
2023/11/15 00:06:43;;;;;;;19.98;3.17;;;;;;;;;;4972062;28;21363;-78
2023/11/15 00:09:09;;;;;;;13.98;3.58;;;;;;;;;;4972919;28;20049;-78
2023/11/15 00:11:35;;;;;;;15.95;3.45;;;;;;;;;;4954779;28;20056;-77
2023/11/15 00:14:00;;;;;;;15.98;3.10;;;;;;;;;;4964122;28;20435;-78
2023/11/15 00:16:26;;;;;;;16.17;3.28;;;;;;;;;;4972029;28;20030;-77
2023/11/15 00:18:51;;;;;;;19.25;2.88;;;;;;;;;;4972928;28;20080;-78
2023/11/15 00:21:18;;;;;;;13.52;3.30;;;;;;;;;;4974414;28;20131;-77
2023/11/15 00:23:43;;;;;;;16.42;3.25;;;;;;;;;;4979196;28;20027;-78
2023/11/15 00:26:09;;;;;;;18.52;3.38;;;;;;;;;;4958217;28;20026;-78
2023/11/15 00:28:34;;;;;;;17.58;3.10;;;;;;;;;;4977398;28;20029;-78
2023/11/15 00:31:00;;;;;;;15.52;3.20;;;;;;;;;;4963609;28;20039;-78
2023/11/15 00:33:26;;;;;;;13.23;2.80;;;;;;;;;;4964819;28;20556;-77
2023/11/15 00:35:52;;;;;;;16.20;3.45;;;;;;;;;;4982072;28;20019;-82
2023/11/15 00:38:17;;;;;;;14.32;3.45;;;;;;;;;;4975128;28;20580;-81
2023/11/15 00:40:43;;;;;;;13.43;3.00;;;;;;;;;;4975956;28;20389;-82
2023/11/15 00:43:10;;;;;;;17.30;3.28;;;;;;;;;;4978715;28;20019;-82
2023/11/15 00:45:35;;;;;;;14.43;3.42;;;;;;;;;;4956691;28;20034;-82
2023/11/15 00:48:00;;;;;;;13.82;3.20;;;;;;;;;;4973297;28;20041;-82
2023/11/15 00:50:26;;;;;;;14.30;3.65;;;;;;;;;;4968588;28;20085;-82
2023/11/15 00:52:51;;;;;;;12.38;2.63;;;;;;;;;;4933651;28;20038;-82
2023/11/15 00:55:17;;;;;;;14.48;3.50;;;;;;;;;;4971013;28;20080;-82
2023/11/15 00:57:44;;;;;;;13.63;3.05;;;;;;;;;;4952631;28;20416;-82
2023/11/15 01:00:23;;;;;;;18.13;3.53;;;;;;;;;;4967410;28;20027;-82
2023/11/15 01:02:57;;;;;;;17.10;2.83;;;;;;;;;;4982077;28;20037;-82
2023/11/15 01:05:23;;;;;;;14.70;3.13;;;;;;;;;;4970743;28;20031;-82
2023/11/15 01:07:48;;;;;;;17.30;2.90;;;;;;;;;;4967490;28;20037;-81
2023/11/15 01:10:14;;;;;;;20.27;3.03;;;;;;;;;;4968267;28;20115;-82
2023/11/15 01:12:41;;;;;;;15.55;2.90;;;;;;;;;;4951563;28;20026;-81
2023/11/15 01:15:07;;;;;;;14.43;2.75;;;;;;;;;;4946970;28;20114;-81
2023/11/15 01:17:35;;;;;;;13.35;3.17;;;;;;;;;;4949315;28;20027;-82
2023/11/15 01:20:05;;;;;;;18.00;3.05;;;;;;;;;;4949665;28;20023;-82
2023/11/15 01:22:30;;;;;;;17.10;2.63;;;;;;;;;;4950105;28;20473;-81
2023/11/15 01:24:56;;;;;;;12.48;2.63;;;;;;;;;;4966638;28;20054;-82
2023/11/15 01:27:21;;;;;;;13.40;2.67;;;;;;;;;;4967884;28;20039;-81
2023/11/15 01:29:46;;;;;;;13.45;2.88;;;;;;;;;;4971435;28;20030;-81
2023/11/15 01:32:12;;;;;;;11.43;2.60;;;;;;;;;;4977499;28;20501;-81
2023/11/15 01:34:37;;;;;;;14.55;3.08;;;;;;;;;;4964267;28;20030;-81
2023/11/15 01:37:04;;;;;;;11.40;2.20;;;;;;;;;;4958704;28;20034;-77
2023/11/15 01:39:29;;;;;;;15.15;2.35;;;;;;;;;;4975226;28;20363;-77
2023/11/15 01:41:56;;;;;;;16.17;2.92;;;;;;;;;;4965980;28;20531;-77
2023/11/15 01:44:22;;;;;;;11.23;2.25;;;;;;;;;;4949358;28;20037;-77
2023/11/15 01:46:49;;;;;;;12.63;2.50;;;;;;;;;;4948826;28;20469;-81
2023/11/15 01:49:20;;;;;;;17.10;2.50;;;;;;;;;;4966767;28;20041;-80
2023/11/15 01:51:46;;;;;;;15.88;2.30;;;;;;;;;;4964663;28;20059;-81
2023/11/15 01:54:15;;;;;;;13.60;2.78;;;;;;;;;;4951096;28;20065;-81
2023/11/15 01:56:41;;;;;;;12.45;2.17;;;;;;;;;;4968699;28;20077;-81
2023/11/15 01:59:08;;;;;;;13.95;2.00;;;;;;;;;;4948848;28;20061;-81
2023/11/15 02:01:35;;;;;;;10.43;2.40;;;;;;;;;;4948377;28;21433;-81
2023/11/15 02:04:01;;;;;;;14.15;2.58;;;;;;;;;;4950685;28;20038;-81
2023/11/15 02:06:30;;;;;;;16.65;2.65;;;;;;;;;;4955061;28;20518;-81
2023/11/15 02:08:58;;;;;;;12.13;2.63;;;;;;;;;;4970488;28;20031;-80
2023/11/15 02:11:24;;;;;;;14.18;2.53;;;;;;;;;;4945201;28;20026;-81
2023/11/15 02:13:49;;;;;;;14.30;2.38;;;;;;;;;;4963658;28;20477;-81
2023/11/15 02:16:15;;;;;;;13.77;2.55;;;;;;;;;;4946495;28;20096;-81
2023/11/15 02:18:40;;;;;;;10.43;2.20;;;;;;;;;;4963019;28;20069;-81
2023/11/15 02:21:06;;;;;;;11.55;2.15;;;;;;;;;;4967361;28;21616;-81
2023/11/15 02:23:31;;;;;;;19.13;2.45;;;;;;;;;;4965869;28;20042;-81
2023/11/15 02:25:57;;;;;;;16.20;2.60;;;;;;;;;;4948017;28;20114;-81
2023/11/15 02:28:22;;;;;;;16.05;2.92;;;;;;;;;;4964811;28;20489;-81
2023/11/15 02:30:48;;;;;;;13.48;2.17;;;;;;;;;;4946988;28;20117;-82
2023/11/15 02:33:14;;;;;;;19.20;2.53;;;;;;;;;;4977951;28;20026;-81
2023/11/15 02:35:41;;;;;;;14.18;2.70;;;;;;;;;;4976518;28;20036;-81
2023/11/15 02:38:06;;;;;;;16.10;2.30;;;;;;;;;;4973208;28;20041;-81
2023/11/15 02:40:32;;;;;;;16.30;2.75;;;;;;;;;;4974817;28;20031;-81
2023/11/15 02:42:58;;;;;;;15.13;3.13;;;;;;;;;;4971698;28;20026;-81
2023/11/15 02:45:23;;;;;;;13.15;2.55;;;;;;;;;;4951290;28;20141;-81
2023/11/15 02:47:49;;;;;;;14.57;2.55;;;;;;;;;;4955891;28;20552;-81
2023/11/15 02:50:14;;;;;;;10.57;2.38;;;;;;;;;;4978700;28;20034;-81
2023/11/15 02:52:41;;;;;;;11.35;2.20;;;;;;;;;;4972996;28;20038;-81
2023/11/15 02:55:06;;;;;;;13.32;2.08;;;;;;;;;;4971810;28;20081;-81
2023/11/15 02:57:32;;;;;;;12.52;2.10;;;;;;;;;;4968154;28;20031;-81
2023/11/15 02:59:57;;;;;;;11.52;2.40;;;;;;;;;;4953217;28;20451;-81
2023/11/15 03:02:23;;;;;;;13.75;2.22;;;;;;;;;;4954614;28;20054;-81
2023/11/15 03:04:48;;;;;;;9.93;2.35;;;;;;;;;;4971410;28;20042;-81
2023/11/15 03:07:14;;;;;;;11.77;2.28;;;;;;;;;;4957051;28;20027;-81
2023/11/15 03:09:39;;;;;;;16.42;2.35;;;;;;;;;;4972944;28;20035;-80
2023/11/15 03:12:05;;;;;;;10.98;2.05;;;;;;;;;;4971030;28;20026;-81
2023/11/15 03:14:31;;;;;;;17.02;2.47;;;;;;;;;;4970246;28;20030;-81
2023/11/15 03:17:06;;;;;;;14.00;2.60;;;;;;;;;;4971456;28;20404;-81
2023/11/15 03:19:32;;;;;;;13.45;2.67;;;;;;;;;;4977521;28;20065;-81
2023/11/15 03:21:57;;;;;;;10.77;1.85;;;;;;;;;;4976822;28;20050;-81
2023/11/15 03:24:23;;;;;;;11.32;2.72;;;;;;;;;;4954665;28;20046;-80
2023/11/15 03:26:49;;;;;;;10.13;2.38;;;;;;;;;;4974228;28;20085;-81
2023/11/15 03:29:14;;;;;;;9.18;2.28;;;;;;;;;;4980827;28;20026;-81
2023/11/15 03:31:40;;;;;;;12.55;2.00;;;;;;;;;;4983223;28;20078;-81
2023/11/15 03:34:05;;;;;;;12.48;2.08;;;;;;;;;;4969241;28;20407;-81
2023/11/15 03:36:32;;;;;;;12.95;1.70;;;;;;;;;;4966921;28;20393;-81
2023/11/15 03:38:59;;;;;;;14.60;2.20;;;;;;;;;;4961550;28;20026;-80
2023/11/15 03:41:24;;;;;;;12.07;2.00;;;;;;;;;;4981178;28;20500;-81
2023/11/15 03:43:51;;;;;;;10.30;2.08;;;;;;;;;;4957563;28;20065;-81
2023/11/15 03:46:17;;;;;;;14.75;2.80;;;;;;;;;;4975617;28;20106;-81
2023/11/15 03:48:42;;;;;;;15.82;2.35;;;;;;;;;;4982881;28;20133;-81
2023/11/15 03:51:08;;;;;;;15.45;2.58;;;;;;;;;;4975913;28;20022;-81
2023/11/15 03:53:33;;;;;;;16.05;2.03;;;;;;;;;;4959382;28;20023;-81
2023/11/15 03:55:59;;;;;;;12.02;1.92;;;;;;;;;;4956412;28;20081;-80
2023/11/15 03:58:24;;;;;;;9.60;2.15;;;;;;;;;;4955497;28;20511;-81
2023/11/15 04:00:49;;;;;;;15.15;2.00;;;;;;;;;;4957072;28;20034;-81
2023/11/15 04:03:16;;;;;;;8.60;2.38;;;;;;;;;;4959848;28;20030;-81
2023/11/15 04:05:41;;;;;;;10.23;1.77;;;;;;;;;;4972160;28;20489;-81
2023/11/15 04:08:07;;;;;;;10.77;1.85;;;;;;;;;;4950481;28;20039;-77
2023/11/15 04:10:33;;;;;;;14.40;1.80;;;;;;;;;;4967677;28;20023;-77
2023/11/15 04:12:59;;;;;;;10.93;1.75;;;;;;;;;;4966935;28;20030;-77
2023/11/15 04:15:24;;;;;;;15.50;1.98;;;;;;;;;;4951207;28;20058;-78
2023/11/15 04:17:49;;;;;;;14.57;2.33;;;;;;;;;;4969682;28;20096;-77
2023/11/15 04:20:15;;;;;;;13.27;2.30;;;;;;;;;;4951771;28;20026;-77
2023/11/15 04:22:41;;;;;;;17.25;2.40;;;;;;;;;;4968653;28;20026;-77
2023/11/15 04:25:06;;;;;;;11.38;2.22;;;;;;;;;;4948880;28;20038;-77
2023/11/15 04:27:32;;;;;;;13.00;2.15;;;;;;;;;;4968188;28;20097;-77
2023/11/15 04:29:57;;;;;;;14.35;2.15;;;;;;;;;;4970335;28;20023;-77
2023/11/15 04:32:24;;;;;;;14.55;2.25;;;;;;;;;;4961750;28;20041;-77
2023/11/15 04:34:49;;;;;;;15.18;2.25;;;;;;;;;;4975772;28;20428;-77
2023/11/15 04:37:16;;;;;;;13.07;2.50;;;;;;;;;;4976960;28;20066;-77
2023/11/15 04:39:42;;;;;;;13.68;2.17;;;;;;;;;;4951399;28;20034;-77
2023/11/15 04:42:10;;;;;;;9.27;1.70;;;;;;;;;;4956416;28;20108;-77
2023/11/15 04:44:35;;;;;;;13.13;1.85;;;;;;;;;;4973422;28;20026;-77
2023/11/15 04:47:01;;;;;;;13.93;2.67;;;;;;;;;;4959112;28;20531;-77
2023/11/15 04:49:26;;;;;;;13.95;2.30;;;;;;;;;;4966567;28;20373;-77
2023/11/15 04:51:51;;;;;;;12.10;2.03;;;;;;;;;;4971211;28;20105;-77
2023/11/15 04:54:17;;;;;;;11.75;2.22;;;;;;;;;;4969571;28;20034;-77
2023/11/15 04:56:42;;;;;;;9.30;1.73;;;;;;;;;;4973877;28;20105;-77
2023/11/15 04:59:07;;;;;;;8.15;1.80;;;;;;;;;;4976522;28;20030;-77
2023/11/15 05:01:33;;;;;;;13.57;2.08;;;;;;;;;;4970191;28;20614;-77
2023/11/15 05:04:00;;;;;;;11.52;2.10;;;;;;;;;;4959997;28;20026;-78
2023/11/15 05:06:25;;;;;;;11.98;2.28;;;;;;;;;;4976830;28;20054;-77
2023/11/15 05:08:51;;;;;;;13.40;1.90;;;;;;;;;;4957540;28;20053;-77
2023/11/15 05:11:16;;;;;;;12.57;1.90;;;;;;;;;;4968020;28;20097;-77
2023/11/15 05:13:41;;;;;;;12.93;2.97;;;;;;;;;;4958928;28;20396;-77
2023/11/15 05:16:07;;;;;;;13.98;2.25;;;;;;;;;;4955393;28;20031;-77
2023/11/15 05:18:33;;;;;;;11.48;2.33;;;;;;;;;;4952206;28;20037;-77
2023/11/15 05:20:58;;;;;;;12.63;2.15;;;;;;;;;;4955978;28;20056;-77
2023/11/15 05:23:23;;;;;;;12.82;1.95;;;;;;;;;;4981799;28;20073;-77
2023/11/15 05:25:49;;;;;;;15.43;2.67;;;;;;;;;;4954338;28;20054;-77
2023/11/15 05:28:14;;;;;;;10.25;2.15;;;;;;;;;;4957566;28;20477;-77
2023/11/15 05:30:41;;;;;;;11.23;2.20;;;;;;;;;;4973402;28;20010;-77
2023/11/15 05:33:06;;;;;;;14.38;2.65;;;;;;;;;;4973253;28;20061;-77
2023/11/15 05:35:32;;;;;;;12.35;2.95;;;;;;;;;;4973241;28;20393;-77
2023/11/15 05:37:58;;;;;;;14.10;2.63;;;;;;;;;;4970440;28;20050;-77
2023/11/15 05:40:23;;;;;;;11.00;2.53;;;;;;;;;;4970470;28;20058;-77
2023/11/15 05:42:48;;;;;;;13.75;3.05;;;;;;;;;;4971924;28;20393;-77
2023/11/15 05:45:15;;;;;;;9.35;3.03;;;;;;;;;;4974958;28;20031;-77
2023/11/15 05:47:41;;;;;;;14.55;4.18;;;;;;;;;;4963323;28;20116;-77
2023/11/15 05:50:09;;;;;;;15.55;3.25;;;;;;;;;;4972728;28;20050;-77
2023/11/15 05:52:37;;;;;;;18.80;3.67;;;;;;;;;;4962422;28;20034;-76
2023/11/15 05:55:08;;;;;;;12.23;3.05;;;;;;;;;;4973420;28;20022;-77
2023/11/15 05:57:34;;;;;;;12.65;4.43;;;;;;;;;;4970539;28;20034;-77
2023/11/15 06:00:01;;;;;;;14.25;3.58;;;;;;;;;;4974324;28;20029;-77
2023/11/15 06:02:29;;;;;;;13.90;3.03;;;;;;;;;;4951563;28;20037;-77
2023/11/15 06:04:56;;;;;;;14.98;3.50;;;;;;;;;;4954221;28;20030;-77
2023/11/15 06:07:22;;;;;;;14.23;3.55;;;;;;;;;;4952311;28;20030;-77
2023/11/15 06:09:47;;;;;;;13.15;3.50;;;;;;;;;;4965292;28;20034;-78
2023/11/15 06:12:12;;;;;;;15.68;4.38;;;;;;;;;;4949573;28;20404;-77
2023/11/15 06:14:38;;;;;;;18.52;3.78;;;;;;;;;;4967008;28;20125;-77
2023/11/15 06:17:03;;;;;;;12.30;3.58;;;;;;;;;;4968443;28;20031;-80
2023/11/15 06:19:31;;;;;;;18.38;4.05;;;;;;;;;;4963717;28;20038;-81
2023/11/15 06:21:57;;;;;;;12.30;3.72;;;;;;;;;;4966679;28;20066;-80
2023/11/15 06:24:22;;;;;;;17.48;3.58;;;;;;;;;;4981670;28;20101;-81
2023/11/15 06:26:51;;;;;;;14.02;3.60;;;;;;;;;;4968091;28;20027;-81
2023/11/15 06:29:18;;;;;;;17.98;3.70;;;;;;;;;;4967820;28;20031;-81
2023/11/15 06:31:44;;;;;;;11.93;3.47;;;;;;;;;;4947818;28;20033;-81
2023/11/15 06:34:09;;;;;;;17.17;4.28;;;;;;;;;;4975193;28;20038;-80
2023/11/15 06:36:35;;;;;;;12.60;3.10;;;;;;;;;;4972444;28;20437;-80
2023/11/15 06:39:01;;;;;;;13.20;3.55;;;;;;;;;;4972083;28;20034;-81
2023/11/15 06:41:28;;;;;;;11.93;3.05;;;;;;;;;;4954761;28;20128;-80
2023/11/15 06:43:53;;;;;;;12.45;3.58;;;;;;;;;;4956643;28;20042;-81
2023/11/15 06:46:18;;;;;;;15.30;3.67;;;;;;;;;;4971103;28;20043;-80
2023/11/15 06:48:44;;;;;;;12.02;3.05;;;;;;;;;;4966563;28;20381;-80
2023/11/15 06:51:09;;;;;;;11.80;2.83;;;;;;;;;;4967195;28;20034;-81
2023/11/15 06:53:35;;;;;;;13.93;3.38;;;;;;;;;;4965139;28;20120;-81
2023/11/15 06:56:00;;;;;;;11.55;3.05;;;;;;;;;;4968636;28;20049;-81
2023/11/15 06:58:26;;;;;;;18.95;3.70;;;;;;;;;;4974584;28;20121;-81
2023/11/15 07:00:52;;;;;;;17.50;3.42;;;;;;;;;;4970462;28;20085;-80
2023/11/15 07:03:17;;;;;;;13.02;3.17;;;;;;;;;;4950893;28;20022;-81
2023/11/15 07:05:48;;;;;;;13.00;2.75;;;;;;;;;;4948000;28;20075;-81
2023/11/15 07:08:16;;;;;;;13.50;3.33;;;;;;;;;;4947982;28;20511;-81
2023/11/15 07:10:45;;;;;;;11.40;3.08;;;;;;;;;;4968740;28;20027;-81
2023/11/15 07:13:12;;;;;;;11.35;3.22;;;;;;;;;;4967964;28;20026;-81
2023/11/15 07:15:39;;;;;;;14.13;2.88;;;;;;;;;;4959645;28;20031;-81
2023/11/15 07:18:05;;;;;;;12.05;2.85;;;;;;;;;;4965702;28;20035;-81
2023/11/15 07:20:30;;;;;;;10.88;2.83;;;;;;;;;;4964722;28;20077;-81
2023/11/15 07:22:57;;;;;;;15.13;2.70;;;;;;;;;;4965990;28;20624;-81
2023/11/15 07:25:22;;;;;;;16.13;2.80;;;;;;;;;;4952673;28;20045;-80
2023/11/15 07:27:49;;;;;;;12.68;2.53;;;;;;;;;;4968626;28;20026;-81
2023/11/15 07:30:18;;;;;;;11.88;2.40;;;;;;;;;;4966555;28;20030;-80
2023/11/15 07:32:44;;;;;;;11.07;2.22;;;;;;;;;;4973994;28;20038;-81
2023/11/15 07:35:09;;;;;;;14.73;2.85;;;;;;;;;;4980940;28;20022;-80
2023/11/15 07:37:35;;;;;;;14.30;2.67;;;;;;;;;;4973391;28;20030;-81
2023/11/15 07:40:00;;;;;;;9.82;2.55;;;;;;;;;;4947188;28;20503;-81
2023/11/15 07:42:26;;;;;;;10.10;2.40;;;;;;;;;;4967043;28;20038;-80
2023/11/15 07:44:52;;;;;;;12.73;2.85;;;;;;;;;;4947247;28;20034;-80
2023/11/15 07:47:17;;;;;;;14.50;2.78;;;;;;;;;;4966499;28;20439;-81
2023/11/15 07:49:43;;;;;;;15.90;2.17;;;;;;;;;;4970189;28;20041;-80
2023/11/15 07:52:09;;;;;;;11.77;2.25;;;;;;;;;;4967115;28;20038;-81
2023/11/15 07:54:34;;;;;;;9.98;2.15;;;;;;;;;;4971612;28;20035;-80
2023/11/15 07:56:59;;;;;;;9.65;2.13;;;;;;;;;;4970714;28;20496;-81
2023/11/15 07:59:26;;;;;;;12.50;1.98;;;;;;;;;;4964695;28;20181;-81
2023/11/15 08:01:52;;;;;;;10.23;1.80;;;;;;;;;;4967724;28;20027;-80
2023/11/15 08:04:19;;;;;;;6.85;1.42;;;;;;;;;;4958609;28;20392;-81
2023/11/15 08:06:50;;;;;;;10.40;2.13;;;;;;;;;;4975681;28;20404;-80
2023/11/15 08:09:24;;;;;;;8.32;1.83;;;;;;;;;;4974458;28;20033;-81
2023/11/15 08:11:54;;;;;;;7.53;1.48;;;;;;;;;;4966911;28;20022;-81
2023/11/15 08:14:21;;;;;;;10.13;2.10;;;;;;;;;;4969185;28;20023;-81
2023/11/15 08:16:47;;;;;;;9.00;2.38;;;;;;;;;;4970483;28;20034;-81
2023/11/15 08:19:14;;;;;;;8.38;1.98;;;;;;;;;;4970769;28;20058;-81
2023/11/15 08:21:39;;;;;;;11.48;2.13;;;;;;;;;;4955949;28;20102;-80
2023/11/15 08:24:06;;;;;;;9.30;2.35;;;;;;;;;;4959066;28;20185;-81
2023/11/15 08:26:33;;;;;;;11.05;3.03;;;;;;;;;;4961984;28;20065;-81
2023/11/15 08:28:58;;;;;;;18.45;4.28;;;;;;;;;;4953318;28;20412;-81
2023/11/15 08:31:24;;;;;;;17.85;4.72;;;;;;;;;;4968387;28;20258;-81
2023/11/15 08:33:50;;;;;;;15.00;4.32;;;;;;;;;;4981114;28;20508;-81
2023/11/15 08:36:16;;;;;;;14.02;3.90;;;;;;;;;;4975071;28;20027;-76
2023/11/15 08:38:41;;;;;;;12.73;4.20;;;;;;;;;;4956628;28;20037;-76
2023/11/15 08:41:06;;;;;;;15.65;4.30;;;;;;;;;;4958761;28;20022;-76
2023/11/15 08:43:32;;;;;;;15.40;4.20;;;;;;;;;;4957075;28;20027;-76
2023/11/15 08:45:57;;;;;;;18.15;4.20;;;;;;;;;;4956575;28;20480;-79
2023/11/15 08:48:23;;;;;;;17.58;3.80;;;;;;;;;;4968904;28;20416;-82
2023/11/15 08:50:49;;;;;;;11.88;3.00;;;;;;;;;;4953887;28;20026;-81
2023/11/15 08:53:17;;;;;;;13.40;3.00;;;;;;;;;;4945965;28;21201;-81
2023/11/15 08:55:44;;;;;;;11.32;3.50;;;;;;;;;;4966325;28;20035;-80
2023/11/15 08:58:16;;;;;;;17.60;2.83;;;;;;;;;;4971465;28;20031;-81
2023/11/15 09:00:49;;;;;;;10.70;2.92;;;;;;;;;;4979247;28;20065;-81
2023/11/15 09:03:15;;;;;;;16.77;3.05;;;;;;;;;;4967342;28;20030;-81
2023/11/15 09:05:44;;;;;;;14.20;2.85;;;;;;;;;;4967597;28;20042;-82
2023/11/15 09:08:10;;;;;;;12.43;3.17;;;;;;;;;;4977146;28;20088;-81
2023/11/15 09:10:36;;;;;;;16.05;2.60;;;;;;;;;;4967437;28;20038;-81
2023/11/15 09:13:01;;;;;;;10.05;2.28;;;;;;;;;;4961292;28;20023;-82
2023/11/15 09:15:30;;;;;;;14.35;2.55;;;;;;;;;;4966188;28;20041;-82
2023/11/15 09:17:56;;;;;;;11.32;2.30;;;;;;;;;;4968129;28;20159;-81
2023/11/15 09:20:29;;;;;;;14.57;3.08;;;;;;;;;;4964819;28;20655;-82
2023/11/15 09:22:55;;;;;;;15.18;2.45;;;;;;;;;;4951311;28;20038;-82
2023/11/15 09:25:23;;;;;;;8.52;2.40;;;;;;;;;;4969442;28;20027;-82
2023/11/15 09:27:50;;;;;;;10.63;2.60;;;;;;;;;;4972559;28;20030;-82
2023/11/15 09:30:17;;;;;;;10.27;2.70;;;;;;;;;;4950106;28;20034;-82
2023/11/15 09:32:43;;;;;;;12.48;2.70;;;;;;;;;;4957095;28;20027;-81
2023/11/15 09:35:10;;;;;;;11.50;3.28;;;;;;;;;;4954473;28;20471;-82
2023/11/15 09:37:37;;;;;;;18.33;2.85;;;;;;;;;;4975763;28;20413;-82
2023/11/15 09:40:10;;;;;;;12.88;2.70;;;;;;;;;;4966035;28;20031;-81
2023/11/15 09:42:42;;;;;;;12.50;2.80;;;;;;;;;;4955984;28;20039;-82
2023/11/15 09:45:11;;;;;;;9.88;2.65;;;;;;;;;;4977153;28;20803;-81
2023/11/15 09:47:37;;;;;;;8.10;2.05;;;;;;;;;;4958616;28;20058;-76
2023/11/15 09:50:06;;;;;;;12.63;2.28;;;;;;;;;;4948322;28;20125;-76
2023/11/15 09:52:33;;;;;;;11.85;2.13;;;;;;;;;;4968321;28;20544;-76
2023/11/15 09:55:01;;;;;;;8.90;1.85;;;;;;;;;;4963933;28;20045;-76
2023/11/15 09:57:26;;;;;;;9.63;1.75;;;;;;;;;;4970982;28;20042;-76
2023/11/15 09:59:52;;;;;;;7.68;1.98;;;;;;;;;;4960834;28;20042;-76
2023/11/15 10:02:19;;;;;;;12.15;2.20;;;;;;;;;;4970734;28;20038;-76
2023/11/15 10:04:45;;;;;;;10.73;1.88;;;;;;;;;;4982956;28;20060;-76
2023/11/15 10:07:27;;;;;;;11.70;2.03;;;;;;;;;;4965449;28;20532;-76
2023/11/15 10:09:52;;;;;;;12.88;2.10;;;;;;;;;;4949336;28;20044;-76
2023/11/15 10:12:18;;;;;;;13.10;2.08;;;;;;;;;;4965899;28;20475;-76
2023/11/15 10:14:53;;;;;;;9.65;2.20;;;;;;;;;;4955082;28;20034;-76
2023/11/15 10:17:20;;;;;;;10.68;2.80;;;;;;;;;;4975699;28;20034;-76
2023/11/15 10:19:46;;;;;;;10.63;2.22;;;;;;;;;;4964624;28;20110;-76
2023/11/15 10:22:14;;;;;;;13.43;2.60;;;;;;;;;;4974469;28;20129;-76
2023/11/15 10:24:40;;;;;;;13.60;2.33;;;;;;;;;;4947871;28;20018;-76
2023/11/15 10:27:12;;;;;;;14.20;2.17;;;;;;;;;;4978276;28;20183;-76
2023/11/15 10:29:38;;;;;;;15.43;2.75;;;;;;;;;;4961288;28;20038;-76
2023/11/15 10:32:04;;;;;;;17.88;2.65;;;;;;;;;;4973999;28;20030;-76
2023/11/15 10:34:32;;;;;;;9.75;2.22;;;;;;;;;;4947510;28;20031;-76
2023/11/15 10:37:11;;;;;;;9.05;1.85;;;;;;;;;;4967838;28;20117;-76
2023/11/15 10:39:46;;;;;;;7.65;1.95;;;;;;;;;;4969661;28;20471;-76
2023/11/15 10:42:12;;;;;;;14.73;1.90;;;;;;;;;;4972858;28;20114;-76
2023/11/15 10:44:39;;;;;;;13.55;2.17;;;;;;;;;;4970360;28;20031;-76
2023/11/15 10:47:08;;;;;;;10.88;3.05;;;;;;;;;;4968672;28;20035;-76
2023/11/15 10:49:43;;;;;;;11.00;2.13;;;;;;;;;;4966317;28;20042;-76
2023/11/15 10:52:11;;;;;;;19.88;2.55;;;;;;;;;;4963249;28;20034;-77
2023/11/15 10:54:38;;;;;;;10.77;2.00;;;;;;;;;;4971806;28;20031;-76
2023/11/15 10:57:07;;;;;;;15.40;2.45;;;;;;;;;;4968814;28;20062;-81
2023/11/15 10:59:37;;;;;;;8.93;2.05;;;;;;;;;;4964234;28;20089;-81
2023/11/15 11:02:05;;;;;;;12.35;2.47;;;;;;;;;;4951640;28;20566;-81
2023/11/15 11:04:32;;;;;;;13.13;2.22;;;;;;;;;;4968012;28;20062;-81
2023/11/15 11:07:07;;;;;;;12.32;2.08;;;;;;;;;;4962822;28;20022;-82
2023/11/15 11:10:03;;;;;;;11.85;2.22;;;;;;;;;;4963821;28;20036;-81
2023/11/15 11:12:31;;;;;;;10.00;2.20;;;;;;;;;;4949144;28;20070;-82
2023/11/15 11:15:17;;;;;;;9.75;1.88;;;;;;;;;;4970902;28;20041;-82
2023/11/15 11:17:45;;;;;;;10.73;2.00;;;;;;;;;;4962553;28;20092;-82
2023/11/15 11:20:34;;;;;;;11.50;2.53;;;;;;;;;;4969749;28;20037;-81
2023/11/15 11:23:22;;;;;;;11.32;2.35;;;;;;;;;;4945074;28;20038;-82
2023/11/15 11:25:56;;;;;;;13.07;2.08;;;;;;;;;;4965762;28;20780;-81
2023/11/15 11:28:22;;;;;;;10.05;1.95;;;;;;;;;;4949169;28;20126;-81
2023/11/15 11:31:19;;;;;;;11.70;2.08;;;;;;;;;;4945525;28;20023;-82
2023/11/15 11:34:12;;;;;;;9.55;1.90;;;;;;;;;;4967222;28;20022;-81
2023/11/15 11:36:45;;;;;;;;;;;;;;;;;;4954778;28;20465;-81
2023/11/15 11:39:12;;;;;;;8.13;1.75;;;;;;;;;;4968078;28;19959;-81
2023/11/15 11:41:38;;;;;;;12.50;2.42;;;;;;;;;;4963742;28;20089;-81
2023/11/15 11:44:04;;;;;;;11.80;2.20;;;;;;;;;;4950624;28;20330;-81
2023/11/15 11:46:30;;;;;;;14.15;2.22;;;;;;;;;;4952804;28;20038;-81
2023/11/15 11:49:02;;;;;;;10.95;1.73;;;;;;;;;;4966921;28;20168;-81
2023/11/15 11:51:27;;;;;;;11.43;1.90;;;;;;;;;;4954875;28;20035;-81
2023/11/15 11:53:54;;;;;;;12.43;1.75;;;;;;;;;;4972742;28;20042;-81
2023/11/15 11:56:19;;;;;;;6.45;1.42;;;;;;;;;;4952350;28;20038;-81
2023/11/15 11:58:45;;;;;;;10.18;1.85;;;;;;;;;;4963818;28;20673;-81
2023/11/15 12:01:11;;;;;;;9.82;2.40;;;;;;;;;;4968982;28;20038;-81
2023/11/15 12:03:41;;;;;;;11.75;1.73;;;;;;;;;;4966895;28;20030;-81
2023/11/15 12:06:08;;;;;;;9.82;1.70;;;;;;;;;;4966064;28;20062;-80
2023/11/15 12:08:38;;;;;;;8.85;1.80;;;;;;;;;;4964379;28;20077;-81
2023/11/15 12:11:05;;;;;;;12.10;1.92;;;;;;;;;;4957223;28;20029;-81
2023/11/15 12:13:48;;;;;;;9.30;1.60;;;;;;;;;;4973551;28;20484;-81
2023/11/15 12:16:18;;;;;;;6.90;1.10;;;;;;;;;;4969517;28;20041;-81
2023/11/15 12:19:03;;;;;;;8.77;1.55;;;;;;;;;;4981852;28;20058;-81
2023/11/15 12:21:35;;;;;;;8.35;1.27;;;;;;;;;;4968389;28;20045;-81
2023/11/15 12:24:06;;;;;;;9.10;1.17;;;;;;;;;;4963574;28;20335;-81
2023/11/15 12:26:44;;;;;;;8.93;1.30;;;;;;;;;;4950366;28;20085;-80
2023/11/15 12:29:17;;;;;;;5.47;1.20;;;;;;;;;;4965579;28;20027;-81
2023/11/15 12:31:45;;;;;;;5.45;0.90;;;;;;;;;;4951957;28;20370;-81
2023/11/15 12:34:10;;;;;;;5.55;1.17;;;;;;;;;;4972454;28;20034;-81
2023/11/15 12:36:38;;;;;;;3.45;0.68;;;;;;;;;;4955292;28;20026;-81
2023/11/15 12:39:03;;;;;;;3.60;0.80;;;;;;;;;;4965368;28;20038;-81
2023/11/15 12:41:29;;;;;;;4.22;0.77;;;;;;;;;;4937693;28;20878;-81
2023/11/15 12:44:01;;;;;;;4.35;0.93;;;;;;;;;;4963214;28;20031;-81
2023/11/15 12:46:27;;;;;;;4.32;0.80;;;;;;;;;;4965621;28;20041;-80
2023/11/15 12:48:54;;;;;;;5.55;0.85;;;;;;;;;;4972651;28;20035;-80
2023/11/15 12:51:19;;;;;;;7.00;1.15;;;;;;;;;;4959202;28;20034;-81
2023/11/15 12:53:45;;;;;;;8.82;1.15;;;;;;;;;;4965087;28;20113;-81
2023/11/15 12:56:18;;;;;;;6.47;1.35;;;;;;;;;;4966556;28;20122;-81
2023/11/15 12:58:45;;;;;;;9.32;1.20;;;;;;;;;;4960641;28;20061;-81
2023/11/15 13:01:16;;;;;;;4.43;1.23;;;;;;;;;;4970408;28;20026;-81
2023/11/15 13:03:42;;;;;;;5.05;1.10;;;;;;;;;;4968423;28;20034;-81
2023/11/15 13:06:15;;;;;;;4.15;0.80;;;;;;;;;;4968978;28;20053;-81
2023/11/15 13:08:44;;;;;;;6.38;0.93;;;;;;;;;;4951181;28;20070;-80
2023/11/15 13:11:14;;;;;;;4.70;0.98;;;;;;;;;;4947872;28;20034;-81
2023/11/15 13:13:43;;;;;;;6.10;1.00;;;;;;;;;;4948392;28;20031;-81
2023/11/15 13:16:09;;;;;;;6.07;0.88;;;;;;;;;;4946220;28;20027;-76
2023/11/15 13:18:37;;;;;;;8.02;0.95;;;;;;;;;;4964933;28;20064;-76
2023/11/15 13:21:08;;;;;;;3.38;0.80;;;;;;;;;;4964443;28;20104;-76
2023/11/15 13:23:37;;;;;;;6.05;0.95;;;;;;;;;;4943170;28;20377;-76
2023/11/15 13:26:10;;;;;;;5.82;1.10;;;;;;;;;;4963858;28;20260;-76
2023/11/15 13:28:39;;;;;;;3.72;0.98;;;;;;;;;;4976071;28;20422;-76
2023/11/15 13:31:08;;;;;;;4.65;0.90;;;;;;;;;;4964261;28;20113;-76
2023/11/15 13:33:36;;;;;;;4.15;1.42;;;;;;;;;;4964478;28;20094;-77
2023/11/15 13:36:03;;;;;;;6.68;1.00;;;;;;;;;;4947694;28;20030;-76
2023/11/15 13:38:29;;;;;;;6.13;1.27;;;;;;;;;;4963170;28;20043;-77
2023/11/15 13:40:54;;;;;;;8.20;1.75;;;;;;;;;;4961462;28;20043;-77
2023/11/15 13:43:22;;;;;;;4.88;1.27;;;;;;;;;;4955943;28;20055;-77
2023/11/15 13:45:48;;;;;;;9.40;1.52;;;;;;;;;;4955678;28;20108;-77
2023/11/15 13:48:13;;;;;;;9.65;1.60;;;;;;;;;;4936345;28;20026;-76
2023/11/15 13:50:39;;;;;;;9.10;1.45;;;;;;;;;;4961983;28;20577;-76
2023/11/15 13:53:06;;;;;;;8.82;1.58;;;;;;;;;;4969803;28;20027;-76
2023/11/15 13:55:31;;;;;;;9.38;1.27;;;;;;;;;;4944508;28;20523;-76
2023/11/15 13:57:56;;;;;;;8.02;1.30;;;;;;;;;;4944754;28;20042;-77
2023/11/15 14:00:28;;;;;;;10.65;1.40;;;;;;;;;;4943964;28;20034;-76
2023/11/15 14:02:54;;;;;;;6.65;1.60;;;;;;;;;;4964310;28;20057;-75
2023/11/15 14:05:20;;;;;;;8.13;1.38;;;;;;;;;;4967855;28;20113;-76
2023/11/15 14:07:46;;;;;;;12.40;2.03;;;;;;;;;;4957521;28;20027;-76
2023/11/15 14:10:25;;;;;;;12.05;1.50;;;;;;;;;;4959928;28;21470;-90
2023/11/15 14:12:51;;;;;;;6.75;1.40;;;;;;;;;;4963870;28;20027;-87
2023/11/15 14:15:18;;;;;;;12.30;1.63;;;;;;;;;;4952689;28;20029;-87
2023/11/15 14:17:48;;;;;;;10.15;1.63;;;;;;;;;;4970528;28;20100;-88
2023/11/15 14:20:15;;;;;;;8.27;1.40;;;;;;;;;;4965111;28;20031;-89
2023/11/15 14:22:41;;;;;;;8.43;1.40;;;;;;;;;;4971908;28;20083;-89
2023/11/15 14:25:19;;;;;;;10.05;1.70;;;;;;;;;;4952238;28;20050;-88
2023/11/15 14:27:45;;;;;;;9.25;1.58;;;;;;;;;;4945863;28;20022;-85
2023/11/15 14:30:11;;;;;;;9.30;1.52;;;;;;;;;;4964094;28;20030;-87
2023/11/15 14:32:37;;;;;;;11.48;1.90;;;;;;;;;;4949023;28;20087;-83
2023/11/15 14:35:04;;;;;;;10.65;1.63;;;;;;;;;;4968558;28;20072;-83